createdAt,value
2022-12-26T00:01:27.672Z,18.35
2022-12-26T00:03:57.101Z,23.85
2022-12-26T00:06:27.598Z,28.27
2022-12-26T00:08:55.489Z,17.50
2022-12-26T00:11:23.810Z,15.10
2022-12-26T00:13:56.387Z,16.45
2022-12-26T00:16:26.911Z,14.55
2022-12-26T00:18:57.518Z,20.08
2022-12-26T00:21:27.532Z,12.77
2022-12-26T00:23:56.773Z,18.85
2022-12-26T00:26:26.059Z,18.42
2022-12-26T00:28:54.594Z,16.45
2022-12-26T00:31:25.666Z,17.80
2022-12-26T00:33:52.943Z,17.50
2022-12-26T00:36:23.179Z,22.48
2022-12-26T00:38:51.495Z,15.80
2022-12-26T00:41:20.889Z,21.95
2022-12-26T00:43:48.436Z,22.08
2022-12-26T00:46:16.632Z,15.90
2022-12-26T00:48:43.878Z,17.20
2022-12-26T00:51:11.289Z,15.25
2022-12-26T00:53:38.650Z,19.58
2022-12-26T00:56:06.330Z,19.63
2022-12-26T00:58:34.067Z,18.40
2022-12-26T01:01:10.940Z,18.23
2022-12-26T01:03:38.264Z,18.75
2022-12-26T01:06:05.805Z,18.23
2022-12-26T01:08:33.295Z,16.88
2022-12-26T01:11:09.127Z,19.27
2022-12-26T01:13:37.063Z,26.83
2022-12-26T01:16:05.874Z,19.58
2022-12-26T01:18:33.980Z,21.00
2022-12-26T01:21:04.667Z,18.23
2022-12-26T01:23:32.444Z,20.77
2022-12-26T01:26:16.872Z,19.95
2022-12-26T01:28:52.732Z,20.13
2022-12-26T01:31:21.564Z,13.85
2022-12-26T01:33:49.022Z,27.05
2022-12-26T01:36:18.371Z,20.73
2022-12-26T01:38:46.286Z,27.65
2022-12-26T01:41:17.051Z,18.58
2022-12-26T01:43:53.587Z,23.02
2022-12-26T01:46:26.302Z,18.50
2022-12-26T01:48:55.522Z,24.23
2022-12-26T01:51:26.992Z,26.65
2022-12-26T01:54:41.011Z,26.55
2022-12-26T01:56:47.159Z,23.17
2022-12-26T01:59:29.035Z,23.73
2022-12-26T02:01:56.761Z,23.73
2022-12-26T02:04:48.483Z,27.70
2022-12-26T02:07:16.070Z,21.40
2022-12-26T02:09:44.658Z,28.33
2022-12-26T02:12:35.106Z,24.30
2022-12-26T02:15:14.179Z,30.08
2022-12-26T02:17:41.908Z,37.25
2022-12-26T02:20:23.578Z,37.70
2022-12-26T02:23:05.942Z,40.15
2022-12-26T02:25:51.641Z,40.78
2022-12-26T02:28:40.661Z,40.33
2022-12-26T02:31:07.799Z,40.72
2022-12-26T02:33:37.902Z,39.47
2022-12-26T02:36:27.084Z,49.13
2022-12-26T02:39:48.628Z,40.97
2022-12-26T02:42:22.307Z,39.42
2022-12-26T02:45:46.670Z,45.78
2022-12-26T02:48:55.114Z,43.72
2022-12-26T02:51:47.085Z,44.63
2022-12-26T02:54:47.177Z,41.85
2022-12-26T02:57:40.386Z,47.38
2022-12-26T03:00:38.248Z,40.03
2022-12-26T03:03:38.931Z,47.83
2022-12-26T03:06:36.471Z,38.35
2022-12-26T03:09:38.008Z,36.28
2022-12-26T03:12:46.900Z,41.80
2022-12-26T03:15:17.753Z,43.85
2022-12-26T03:17:50.491Z,44.67
2022-12-26T03:20:30.736Z,44.95
2022-12-26T03:23:07.700Z,46.90
2022-12-26T03:26:18.061Z,40.40
2022-12-26T03:28:48.546Z,25.83
2022-12-26T03:31:16.553Z,29.33
2022-12-26T03:34:04.981Z,27.33
2022-12-26T03:36:53.332Z,28.35
2022-12-26T03:40:10.251Z,36.35
2022-12-26T03:43:12.360Z,33.70
2022-12-26T03:46:35.915Z,26.85
2022-12-26T03:49:43.879Z,23.67
2022-12-26T03:52:57.722Z,19.45
2022-12-26T03:56:21.105Z,44.45
2022-12-26T03:59:25.646Z,32.53
2022-12-26T04:02:14.329Z,23.58
2022-12-26T04:05:04.592Z,22.52
2022-12-26T04:07:58.903Z,21.60
2022-12-26T04:10:51.061Z,16.80
2022-12-26T04:13:47.730Z,21.70
2022-12-26T04:16:38.437Z,29.17
2022-12-26T04:19:28.165Z,36.65
2022-12-26T04:22:21.647Z,27.23
2022-12-26T04:28:28.145Z,17.27
2022-12-26T04:31:23.236Z,16.98
2022-12-26T04:34:19.099Z,16.23
2022-12-26T04:37:19.388Z,27.63
2022-12-26T04:40:08.524Z,20.20
2022-12-26T04:42:56.171Z,23.23
2022-12-26T04:45:24.191Z,20.83
2022-12-26T04:48:09.881Z,15.30
2022-12-26T04:50:37.266Z,21.77
2022-12-26T04:53:04.455Z,17.13
2022-12-26T04:55:33.208Z,18.20
2022-12-26T04:58:00.471Z,21.05
2022-12-26T05:00:28.963Z,16.23
2022-12-26T05:03:19.235Z,24.63
2022-12-26T05:06:08.328Z,33.17
2022-12-26T05:09:00.825Z,27.63
2022-12-26T05:11:29.542Z,22.33
2022-12-26T05:13:58.628Z,29.15
2022-12-26T05:16:46.431Z,38.88
2022-12-26T05:19:34.915Z,32.08
2022-12-26T05:22:22.952Z,32.40
2022-12-26T05:25:09.764Z,32.72
2022-12-26T05:27:58.518Z,29.27
2022-12-26T05:30:26.179Z,27.70
2022-12-26T05:33:11.832Z,29.67
2022-12-26T05:35:39.896Z,25.35
2022-12-26T05:38:09.785Z,32.80
2022-12-26T05:40:37.160Z,40.22
2022-12-26T05:43:04.399Z,33.72
2022-12-26T05:45:32.708Z,36.50
2022-12-26T05:48:01.741Z,37.67
2022-12-26T05:50:29.994Z,45.10
2022-12-26T05:52:58.533Z,35.97
2022-12-26T05:55:26.617Z,35.67
2022-12-26T05:57:54.536Z,36.00
2022-12-26T06:00:22.065Z,41.00
2022-12-26T06:02:49.369Z,49.42
2022-12-26T06:05:17.170Z,37.90
2022-12-26T06:07:45.169Z,61.30
2022-12-26T06:10:13.035Z,53.60
2022-12-26T06:12:40.746Z,50.63
2022-12-26T06:15:09.391Z,43.80
2022-12-26T06:17:37.146Z,59.65
2022-12-26T06:20:05.744Z,59.80
2022-12-26T06:22:33.601Z,61.33
2022-12-26T06:25:02.049Z,58.20
2022-12-26T06:27:29.921Z,50.08
2022-12-26T06:29:57.682Z,43.20
2022-12-26T06:32:24.957Z,39.97
2022-12-26T06:34:52.132Z,35.88
2022-12-26T06:37:19.272Z,44.20
2022-12-26T06:39:46.807Z,59.25
2022-12-26T06:42:13.979Z,47.17
2022-12-26T06:44:41.267Z,39.30
2022-12-26T06:47:08.561Z,51.88
2022-12-26T06:49:35.785Z,51.13
2022-12-26T06:52:03.034Z,47.55
2022-12-26T06:54:30.310Z,52.55
2022-12-26T06:56:57.589Z,51.40
2022-12-26T06:59:24.768Z,50.47
2022-12-26T07:01:52.066Z,52.85
2022-12-26T07:04:19.602Z,56.63
2022-12-26T07:06:47.537Z,95.25
2022-12-26T07:09:18.101Z,100.25
2022-12-26T07:11:50.052Z,98.05
2022-12-26T07:14:17.436Z,55.42
2022-12-26T07:16:45.557Z,56.83
2022-12-26T07:19:14.582Z,48.00
2022-12-26T07:21:42.466Z,64.97
2022-12-26T07:24:22.368Z,61.90
2022-12-26T07:26:50.267Z,67.88
2022-12-26T07:29:17.583Z,79.03
2022-12-26T07:31:45.533Z,85.60
2022-12-26T07:34:13.169Z,86.65
2022-12-26T07:36:58.705Z,88.32
2022-12-26T07:39:25.865Z,81.13
2022-12-26T07:41:59.083Z,88.55
2022-12-26T07:44:30.662Z,89.38
2022-12-26T07:46:59.501Z,84.25
2022-12-26T07:49:27.451Z,95.97
2022-12-26T07:51:54.715Z,111.78
2022-12-26T07:54:22.191Z,120.28
2022-12-26T07:56:49.572Z,94.40
2022-12-26T07:59:18.166Z,90.68
2022-12-26T08:01:45.792Z,81.68
2022-12-26T08:04:13.721Z,81.50
2022-12-26T08:06:41.341Z,82.65
2022-12-26T08:09:13.510Z,85.00
2022-12-26T08:11:40.683Z,89.10
2022-12-26T08:14:12.081Z,80.57
2022-12-26T08:16:39.829Z,76.55
2022-12-26T08:19:07.387Z,76.47
2022-12-26T08:21:34.593Z,74.82
2022-12-26T08:24:01.889Z,56.20
2022-12-26T08:26:29.631Z,52.75
2022-12-26T08:28:58.048Z,66.50
2022-12-26T08:31:28.127Z,64.47
2022-12-26T08:34:00.211Z,200.82
2022-12-26T08:36:30.972Z,597.67
2022-12-26T08:38:59.445Z,569.10
2022-12-26T08:41:26.924Z,92.40
2022-12-26T08:46:41.778Z,71.50
2022-12-26T08:49:09.087Z,73.40
2022-12-26T08:51:36.701Z,61.05
2022-12-26T08:54:04.935Z,62.55
2022-12-26T08:56:32.636Z,59.35
2022-12-26T08:58:59.985Z,51.35
2022-12-26T09:01:30.751Z,58.05
2022-12-26T09:04:04.147Z,45.95
2022-12-26T09:06:37.661Z,46.80
2022-12-26T09:11:33.599Z,41.70
2022-12-26T09:14:02.953Z,40.00
2022-12-26T09:16:39.292Z,40.75
2022-12-26T09:19:12.887Z,38.70
2022-12-26T09:21:40.943Z,42.08
2022-12-26T09:24:13.003Z,40.53
2022-12-26T09:26:40.791Z,41.17
2022-12-26T09:29:10.998Z,60.35
2022-12-26T09:31:38.841Z,232.20
2022-12-26T09:34:07.920Z,67.28
2022-12-26T09:36:38.753Z,50.50
2022-12-26T09:39:07.305Z,40.63
2022-12-26T09:41:47.807Z,46.08
2022-12-26T09:44:24.901Z,38.15
2022-12-26T09:47:14.154Z,45.72
2022-12-26T09:50:12.794Z,72.80
2022-12-26T09:52:56.248Z,47.00
2022-12-26T09:55:45.625Z,55.58
2022-12-26T09:58:12.869Z,51.22
2022-12-26T10:00:49.007Z,59.40
2022-12-26T10:03:16.992Z,156.95
2022-12-26T10:06:12.039Z,76.60
2022-12-26T10:09:29.748Z,67.20
2022-12-26T10:12:06.695Z,106.38
2022-12-26T10:14:59.840Z,82.07
2022-12-26T10:17:59.580Z,87.38
2022-12-26T10:20:56.073Z,91.80
2022-12-26T10:23:43.807Z,124.28
2022-12-26T10:26:22.655Z,70.57
2022-12-26T10:28:56.504Z,49.33
2022-12-26T10:31:52.684Z,97.82
2022-12-26T10:34:42.530Z,64.38
2022-12-26T10:37:40.213Z,67.75
2022-12-26T10:40:17.013Z,206.20
2022-12-26T10:42:55.854Z,80.22
2022-12-26T10:45:38.866Z,91.75
2022-12-26T10:48:08.319Z,57.90
2022-12-26T10:50:36.088Z,70.45
2022-12-26T10:53:07.788Z,61.38
2022-12-26T10:55:35.908Z,175.77
2022-12-26T10:58:21.051Z,78.63
2022-12-26T11:00:48.993Z,55.92
2022-12-26T11:03:21.125Z,47.80
2022-12-26T11:06:10.869Z,55.78
2022-12-26T11:08:50.746Z,105.40
2022-12-26T11:11:25.098Z,81.65
2022-12-26T11:14:02.528Z,110.10
2022-12-26T11:16:37.294Z,99.97
2022-12-26T11:19:05.726Z,122.60
2022-12-26T11:21:34.775Z,99.88
2022-12-26T11:24:08.794Z,99.53
2022-12-26T11:26:38.341Z,115.03
2022-12-26T11:29:14.410Z,81.03
2022-12-26T11:32:04.138Z,69.78
2022-12-26T11:34:48.171Z,72.47
2022-12-26T11:37:27.925Z,67.70
2022-12-26T11:39:58.035Z,72.05
2022-12-26T11:42:27.183Z,67.78
2022-12-26T11:44:58.061Z,74.80
2022-12-26T11:47:30.378Z,61.55
2022-12-26T11:50:22.052Z,69.60
2022-12-26T11:53:14.501Z,66.63
2022-12-26T11:55:41.820Z,73.15
2022-12-26T11:58:09.539Z,71.10
2022-12-26T12:00:42.782Z,68.18
2022-12-26T12:03:49.563Z,56.50
2022-12-26T12:06:44.163Z,66.22
2022-12-26T12:09:25.829Z,50.95
2022-12-26T12:12:08.487Z,42.17
2022-12-26T12:14:57.575Z,48.38
2022-12-26T12:17:44.985Z,50.72
2022-12-26T12:20:25.339Z,51.92
2022-12-26T12:23:07.592Z,50.83
2022-12-26T12:25:42.148Z,47.42
2022-12-26T12:28:18.916Z,52.63
2022-12-26T12:30:49.670Z,58.90
2022-12-26T12:33:18.006Z,55.22
2022-12-26T12:36:03.824Z,59.13
2022-12-26T12:38:41.043Z,74.30
2022-12-26T12:41:37.251Z,74.40
2022-12-26T12:44:07.748Z,81.50
2022-12-26T12:46:50.269Z,59.67
2022-12-26T12:49:48.286Z,54.60
2022-12-26T12:52:50.963Z,67.57
2022-12-26T12:55:51.093Z,66.38
2022-12-26T12:58:39.128Z,49.65
2022-12-26T13:01:30.415Z,36.78
2022-12-26T13:04:31.699Z,50.55
2022-12-26T13:07:06.420Z,46.58
2022-12-26T13:09:49.944Z,52.28
2022-12-26T13:12:30.628Z,50.15
2022-12-26T13:15:03.547Z,48.45
2022-12-26T13:17:52.747Z,53.55
2022-12-26T13:20:54.179Z,59.47
2022-12-26T13:23:44.426Z,45.25
2022-12-26T13:26:20.935Z,41.05
2022-12-26T13:29:13.841Z,43.17
2022-12-26T13:31:42.542Z,69.45
2022-12-26T13:34:16.080Z,44.00
2022-12-26T13:39:23.528Z,57.13
2022-12-26T13:42:29.684Z,50.05
2022-12-26T13:45:35.316Z,131.00
2022-12-26T13:48:25.795Z,130.55
2022-12-26T13:50:56.709Z,85.43
2022-12-26T13:53:26.998Z,74.55
2022-12-26T13:56:18.790Z,94.75
2022-12-26T13:59:08.012Z,138.98
2022-12-26T14:01:55.705Z,73.43
2022-12-26T14:04:52.716Z,54.17
2022-12-26T14:07:31.955Z,58.85
2022-12-26T14:10:02.251Z,58.17
2022-12-26T14:13:01.211Z,55.38
2022-12-26T14:15:41.215Z,79.25
2022-12-26T14:18:29.597Z,68.10
2022-12-26T14:21:26.828Z,61.75
2022-12-26T14:24:00.768Z,60.10
2022-12-26T14:26:41.647Z,86.47
2022-12-26T14:29:20.911Z,87.00
2022-12-26T14:32:19.418Z,111.78
2022-12-26T14:35:03.850Z,83.38
2022-12-26T14:38:06.649Z,102.80
2022-12-26T14:40:58.801Z,97.25
2022-12-26T14:43:41.647Z,116.95
2022-12-26T14:46:32.990Z,168.90
2022-12-26T14:49:37.326Z,131.07
2022-12-26T14:55:48.526Z,98.50
2022-12-26T14:58:46.051Z,115.15
2022-12-26T15:01:13.182Z,296.02
2022-12-26T15:04:12.139Z,213.88
2022-12-26T15:07:30.034Z,166.45
2022-12-26T15:10:19.191Z,60.35
2022-12-26T15:13:27.326Z,69.85
2022-12-26T15:15:57.422Z,58.63
2022-12-26T15:18:54.229Z,57.67
2022-12-26T15:21:46.508Z,77.30
2022-12-26T15:24:52.563Z,79.75
2022-12-26T15:27:59.468Z,135.23
2022-12-26T15:30:55.971Z,103.43
2022-12-26T15:33:40.953Z,102.20
2022-12-26T15:36:46.179Z,149.40
2022-12-26T15:39:16.500Z,176.77
2022-12-26T15:41:50.888Z,147.20
2022-12-26T15:44:27.487Z,127.53
2022-12-26T15:47:14.972Z,110.50
2022-12-26T15:50:22.525Z,112.30
2022-12-26T15:52:59.495Z,248.73
2022-12-26T15:56:14.300Z,190.18
2022-12-26T15:59:09.751Z,126.60
2022-12-26T16:01:46.977Z,122.03
2022-12-26T16:04:24.452Z,121.00
2022-12-26T16:07:36.528Z,175.23
2022-12-26T16:10:34.808Z,153.02
2022-12-26T16:13:22.909Z,145.80
2022-12-26T16:15:56.081Z,148.02
2022-12-26T16:18:30.756Z,152.90
2022-12-26T16:21:20.566Z,138.90
2022-12-26T16:23:51.047Z,510.30
2022-12-26T16:26:29.178Z,182.23
2022-12-26T16:29:01.111Z,163.15
2022-12-26T16:31:33.318Z,149.55
2022-12-26T16:34:01.181Z,129.40
2022-12-26T16:36:30.559Z,137.90
2022-12-26T16:38:57.892Z,139.30
2022-12-26T16:41:26.287Z,136.77
2022-12-26T16:43:55.584Z,160.05
2022-12-26T16:46:30.135Z,162.20
2022-12-26T16:49:00.631Z,162.73
2022-12-26T16:51:46.811Z,137.15
2022-12-26T16:54:20.285Z,150.05
2022-12-26T16:57:12.941Z,158.65
2022-12-26T16:59:54.478Z,162.05
2022-12-26T17:02:32.649Z,119.10
2022-12-26T17:05:05.265Z,129.82
2022-12-26T17:07:38.362Z,156.57
2022-12-26T17:10:10.707Z,306.40
2022-12-26T17:12:41.031Z,235.65
2022-12-26T17:15:08.931Z,161.23
2022-12-26T17:17:38.419Z,136.27
2022-12-26T17:20:24.707Z,123.30
2022-12-26T17:22:54.746Z,136.35
2022-12-26T17:25:26.603Z,111.53
2022-12-26T17:28:09.878Z,125.00
2022-12-26T17:30:39.269Z,137.13
2022-12-26T17:33:25.548Z,148.63
2022-12-26T17:38:46.154Z,157.45
2022-12-26T17:41:16.749Z,145.38
2022-12-26T17:43:46.144Z,254.48
2022-12-26T17:46:16.480Z,369.80
2022-12-26T17:48:44.641Z,549.88
2022-12-26T17:51:16.589Z,342.77
2022-12-26T17:53:49.272Z,171.80
2022-12-26T17:56:21.115Z,202.43
2022-12-26T17:58:49.772Z,217.73
2022-12-26T18:01:21.321Z,344.77
2022-12-26T18:03:52.187Z,362.27
2022-12-26T18:06:20.085Z,520.58
2022-12-26T18:08:47.597Z,412.55
2022-12-26T18:11:15.285Z,342.98
2022-12-26T18:13:43.475Z,225.23
2022-12-26T18:16:16.843Z,178.98
2022-12-26T18:21:15.146Z,183.38
2022-12-26T18:27:23.146Z,154.90
2022-12-26T18:29:50.494Z,142.80
2022-12-26T18:32:24.841Z,159.45
2022-12-26T18:34:52.616Z,179.80
2022-12-26T18:37:21.609Z,163.10
2022-12-26T18:39:49.040Z,135.68
2022-12-26T18:42:17.749Z,101.68
2022-12-26T18:44:46.385Z,116.05
2022-12-26T18:47:15.710Z,118.35
2022-12-26T18:49:44.701Z,107.05
2022-12-26T18:52:17.553Z,110.22
2022-12-26T18:57:19.190Z,131.45
2022-12-26T18:59:48.576Z,135.70
2022-12-26T19:02:18.283Z,149.25
2022-12-26T19:04:48.646Z,136.98
2022-12-26T19:07:17.388Z,148.20
2022-12-26T19:09:47.373Z,133.02
2022-12-26T19:12:15.261Z,140.07
2022-12-26T19:14:44.616Z,150.18
2022-12-26T19:17:12.525Z,141.52
2022-12-26T19:19:39.883Z,221.27
2022-12-26T19:22:07.426Z,166.98
2022-12-26T19:24:34.643Z,142.40
2022-12-26T19:27:02.927Z,158.07
2022-12-26T19:29:30.280Z,204.38
2022-12-26T19:31:57.668Z,180.23
2022-12-26T19:34:24.826Z,187.25
2022-12-26T19:36:52.118Z,188.40
2022-12-26T19:39:19.571Z,215.45
2022-12-26T19:41:46.811Z,240.05
2022-12-26T19:44:13.932Z,295.60
2022-12-26T19:46:41.081Z,271.20
2022-12-26T19:52:23.908Z,522.75
2022-12-26T19:54:52.340Z,228.90
2022-12-26T19:57:22.352Z,196.48
2022-12-26T19:59:50.857Z,125.43
2022-12-26T20:02:18.751Z,150.40
2022-12-26T20:04:46.370Z,154.85
2022-12-26T20:07:13.763Z,145.13
2022-12-26T20:09:41.048Z,124.45
2022-12-26T20:13:30.977Z,123.32
2022-12-26T20:16:07.980Z,123.28
2022-12-26T20:18:39.520Z,145.60
2022-12-26T20:21:07.664Z,134.27
2022-12-26T20:23:36.043Z,134.35
2022-12-26T20:26:06.411Z,147.73
2022-12-26T20:28:34.945Z,176.25
2022-12-26T20:31:13.259Z,175.82
2022-12-26T20:33:43.064Z,184.20
2022-12-26T20:36:13.151Z,173.50
2022-12-26T20:38:41.083Z,100.25
2022-12-26T20:41:08.795Z,85.07
2022-12-26T20:43:36.412Z,85.18
2022-12-26T20:46:21.983Z,86.28
2022-12-26T20:48:52.524Z,93.72
2022-12-26T20:51:31.641Z,121.30
2022-12-26T20:54:02.840Z,113.72
2022-12-26T20:56:30.387Z,105.88
2022-12-26T20:58:59.584Z,97.57
2022-12-26T21:01:28.362Z,91.85
2022-12-26T21:03:57.553Z,105.95
2022-12-26T21:06:36.129Z,103.53
2022-12-26T21:09:05.627Z,94.35
2022-12-26T21:11:36.389Z,97.32
2022-12-26T21:14:06.708Z,110.13
2022-12-26T21:16:37.262Z,96.57
2022-12-26T21:19:10.893Z,91.00
2022-12-26T21:21:44.417Z,126.93
2022-12-26T21:24:29.583Z,155.77
2022-12-26T21:26:57.436Z,91.50
2022-12-26T21:29:28.101Z,649.03
2022-12-26T21:31:56.663Z,708.53
2022-12-26T21:34:27.778Z,98.30
2022-12-26T21:37:14.018Z,62.42
2022-12-26T21:39:41.560Z,60.33
2022-12-26T21:42:10.121Z,58.13
2022-12-26T21:44:37.959Z,73.68
2022-12-26T21:47:08.276Z,67.68
2022-12-26T21:49:36.691Z,72.88
2022-12-26T21:52:06.113Z,68.38
2022-12-26T21:54:52.355Z,90.38
2022-12-26T21:57:20.392Z,83.35
2022-12-26T21:59:56.307Z,72.93
2022-12-26T22:02:48.829Z,66.78
2022-12-26T22:05:17.584Z,56.47
2022-12-26T22:07:45.483Z,52.53
2022-12-26T22:10:32.198Z,358.17
2022-12-26T22:12:59.707Z,108.82
2022-12-26T22:15:45.302Z,74.10
2022-12-26T22:18:12.501Z,75.70
2022-12-26T22:20:41.616Z,64.22
2022-12-26T22:23:08.959Z,62.67
2022-12-26T22:25:36.440Z,64.47
2022-12-26T22:28:03.807Z,70.03
2022-12-26T22:30:30.947Z,63.67
2022-12-26T22:32:58.083Z,73.60
2022-12-26T22:35:25.236Z,71.97
2022-12-26T22:37:52.456Z,64.20
2022-12-26T22:40:20.668Z,62.88
2022-12-26T22:42:48.682Z,69.35
2022-12-26T22:45:16.300Z,80.03
2022-12-26T22:47:44.140Z,74.78
2022-12-26T22:50:16.394Z,111.82
2022-12-26T22:52:44.451Z,92.40
2022-12-26T22:55:12.423Z,69.68
2022-12-26T22:57:39.796Z,69.30
2022-12-26T23:00:11.856Z,74.57
2022-12-26T23:02:39.045Z,68.85
2022-12-26T23:05:07.019Z,69.90
2022-12-26T23:07:34.372Z,70.15
2022-12-26T23:10:01.929Z,70.78
2022-12-26T23:12:44.680Z,78.32
2022-12-26T23:15:18.304Z,81.10
2022-12-26T23:18:30.700Z,87.97
2022-12-26T23:21:21.569Z,78.97
2022-12-26T23:23:48.956Z,76.32
2022-12-26T23:26:16.087Z,72.22
2022-12-26T23:29:01.718Z,77.32
2022-12-26T23:31:28.837Z,71.75
2022-12-26T23:33:55.953Z,70.18
2022-12-26T23:36:23.112Z,76.40
2022-12-26T23:38:50.366Z,75.68
2022-12-26T23:41:35.869Z,79.18
2022-12-26T23:44:03.299Z,72.40
2022-12-26T23:46:30.424Z,70.45
2022-12-26T23:48:57.581Z,72.35
2022-12-26T23:51:24.795Z,80.90
2022-12-26T23:53:51.944Z,75.97
2022-12-26T23:56:19.198Z,78.55
2022-12-26T23:58:46.484Z,75.78
